createdAt,value
2022-10-18T00:00:50.281Z,0.60
2022-10-18T00:03:16.840Z,0.40
2022-10-18T00:05:43.443Z,0.47
2022-10-18T00:08:10.312Z,0.43
2022-10-18T00:10:37.083Z,0.30
2022-10-18T00:13:04.114Z,0.30
2022-10-18T00:15:30.748Z,0.45
2022-10-18T00:17:57.287Z,0.20
2022-10-18T00:20:23.927Z,1.95
2022-10-18T00:22:50.606Z,0.60
2022-10-18T00:25:17.636Z,0.47
2022-10-18T00:27:44.213Z,0.40
2022-10-18T00:30:12.744Z,0.80
2022-10-18T00:32:43.592Z,0.50
2022-10-18T00:35:10.218Z,0.47
2022-10-18T00:37:36.765Z,0.35
2022-10-18T00:40:04.464Z,0.30
2022-10-18T00:42:34.578Z,0.30
2022-10-18T00:45:30.715Z,0.30
2022-10-18T00:48:02.604Z,1.50
2022-10-18T00:50:33.655Z,1.10
2022-10-18T00:53:05.777Z,1.15
2022-10-18T00:55:34.141Z,2.03
2022-10-18T00:58:01.594Z,0.35
2022-10-18T01:00:28.288Z,0.40
2022-10-18T01:02:55.084Z,0.30
2022-10-18T01:05:21.904Z,0.30
2022-10-18T01:08:14.236Z,0.20
2022-10-18T01:11:11.411Z,0.35
2022-10-18T01:13:43.629Z,0.30
2022-10-18T01:16:29.967Z,0.38
2022-10-18T01:19:34.790Z,0.30
2022-10-18T01:22:21.633Z,0.52
2022-10-18T01:25:15.836Z,0.30
2022-10-18T01:28:15.859Z,0.30
2022-10-18T01:31:30.528Z,0.47
2022-10-18T01:36:35.256Z,0.40
2022-10-18T01:39:08.736Z,0.40
2022-10-18T01:41:39.612Z,0.32
2022-10-18T01:44:09.494Z,0.40
2022-10-18T01:46:37.591Z,0.30
2022-10-18T01:49:04.608Z,0.32
2022-10-18T01:51:34.124Z,0.50
2022-10-18T01:54:02.041Z,0.30
2022-10-18T01:56:59.001Z,0.40
2022-10-18T01:59:35.244Z,0.32
2022-10-18T02:02:07.427Z,0.30
2022-10-18T02:04:53.547Z,0.30
2022-10-18T02:07:32.525Z,0.30
2022-10-18T02:10:16.408Z,0.20
2022-10-18T02:12:45.302Z,0.28
2022-10-18T02:15:16.248Z,0.30
2022-10-18T02:17:45.335Z,0.60
2022-10-18T02:20:14.834Z,0.40
2022-10-18T02:22:45.908Z,0.68
2022-10-18T02:25:18.142Z,0.40
2022-10-18T02:27:44.932Z,0.30
2022-10-18T02:30:12.855Z,0.47
2022-10-18T02:32:50.323Z,0.70
2022-10-18T02:35:25.236Z,0.88
2022-10-18T02:37:53.905Z,0.45
2022-10-18T02:40:20.919Z,0.52
2022-10-18T02:42:51.155Z,0.52
2022-10-18T02:45:18.011Z,0.40
2022-10-18T02:47:44.837Z,1.25
2022-10-18T02:50:12.308Z,0.40
2022-10-18T02:52:39.965Z,0.80
2022-10-18T02:55:08.603Z,0.60
2022-10-18T02:57:35.585Z,0.70
2022-10-18T03:00:04.949Z,0.80
2022-10-18T03:02:31.526Z,0.90
2022-10-18T03:04:58.250Z,1.10
2022-10-18T03:07:24.857Z,0.82
2022-10-18T03:09:51.625Z,0.90
2022-10-18T03:12:18.240Z,0.80
2022-10-18T03:14:44.872Z,0.80
2022-10-18T03:17:11.512Z,1.00
2022-10-18T03:19:38.787Z,0.88
2022-10-18T03:22:05.652Z,1.27
2022-10-18T03:24:32.276Z,0.98
2022-10-18T03:26:58.848Z,1.20
2022-10-18T03:29:25.475Z,0.90
2022-10-18T03:31:52.086Z,1.20
2022-10-18T03:34:18.705Z,1.48
2022-10-18T03:36:45.327Z,1.38
2022-10-18T03:39:12.796Z,1.13
2022-10-18T03:41:39.660Z,1.88
2022-10-18T03:44:06.211Z,1.42
2022-10-18T03:46:32.795Z,1.30
2022-10-18T03:48:59.521Z,1.55
2022-10-18T03:51:26.148Z,1.00
2022-10-18T03:53:52.692Z,1.02
2022-10-18T03:56:19.321Z,0.70
2022-10-18T03:58:45.893Z,0.80
2022-10-18T04:01:12.711Z,0.88
2022-10-18T04:03:41.529Z,0.80
2022-10-18T04:06:09.955Z,0.47
2022-10-18T04:08:38.803Z,0.57
2022-10-18T04:11:11.336Z,0.60
2022-10-18T04:13:38.223Z,1.00
2022-10-18T04:16:04.913Z,0.70
2022-10-18T04:18:31.616Z,0.77
2022-10-18T04:20:58.772Z,0.68
2022-10-18T04:23:25.549Z,0.68
2022-10-18T04:25:52.196Z,1.00
2022-10-18T04:28:18.918Z,0.55
2022-10-18T04:30:50.390Z,0.30
2022-10-18T04:33:17.583Z,0.52
2022-10-18T04:35:44.392Z,0.60
2022-10-18T04:38:10.948Z,0.80
2022-10-18T04:40:37.684Z,0.80
2022-10-18T04:43:04.253Z,0.90
2022-10-18T04:45:30.885Z,0.60
2022-10-18T04:47:57.665Z,0.70
2022-10-18T04:50:26.621Z,0.88
2022-10-18T04:52:55.869Z,0.77
2022-10-18T04:55:24.840Z,0.70
2022-10-18T04:57:52.995Z,0.90
2022-10-18T05:00:22.022Z,0.85
2022-10-18T05:02:48.636Z,0.80
2022-10-18T05:05:15.437Z,2.10
2022-10-18T05:07:42.111Z,0.80
2022-10-18T05:10:09.315Z,0.80
2022-10-18T05:12:37.675Z,0.52
2022-10-18T05:15:04.606Z,0.70
2022-10-18T05:17:31.764Z,0.45
2022-10-18T05:20:00.810Z,0.55
2022-10-18T05:22:27.486Z,0.60
2022-10-18T05:24:54.032Z,0.50
2022-10-18T05:27:20.612Z,0.43
2022-10-18T05:29:47.181Z,0.70
2022-10-18T05:32:13.825Z,0.80
2022-10-18T05:34:40.391Z,0.60
2022-10-18T05:37:07.317Z,0.65
2022-10-18T05:39:33.977Z,0.60
2022-10-18T05:42:00.742Z,0.68
2022-10-18T05:44:27.371Z,0.60
2022-10-18T05:46:56.245Z,0.47
2022-10-18T05:49:22.915Z,0.60
2022-10-18T05:51:50.691Z,0.50
2022-10-18T05:54:18.524Z,0.40
2022-10-18T05:56:45.173Z,0.63
2022-10-18T05:59:12.347Z,0.50
2022-10-18T06:01:40.493Z,0.35
2022-10-18T06:04:07.710Z,0.60
2022-10-18T06:06:34.352Z,0.50
2022-10-18T06:09:03.330Z,0.43
2022-10-18T06:11:30.952Z,0.35
2022-10-18T06:14:00.591Z,0.50
2022-10-18T06:16:32.002Z,0.50
2022-10-18T06:19:00.058Z,0.40
2022-10-18T06:21:27.639Z,0.50
2022-10-18T06:23:56.348Z,0.60
2022-10-18T06:26:23.220Z,0.70
2022-10-18T06:28:50.034Z,0.95
2022-10-18T06:31:17.298Z,0.70
2022-10-18T06:33:45.651Z,0.40
2022-10-18T06:36:24.792Z,0.60
2022-10-18T06:38:53.496Z,0.73
2022-10-18T06:41:20.624Z,0.55
2022-10-18T06:43:51.060Z,0.40
2022-10-18T06:46:17.770Z,0.60
2022-10-18T06:48:44.337Z,0.73
2022-10-18T06:51:15.156Z,0.75
2022-10-18T06:53:44.637Z,0.50
2022-10-18T06:56:25.588Z,0.55
2022-10-18T06:58:52.242Z,0.80
2022-10-18T07:01:19.150Z,0.82
2022-10-18T07:03:49.476Z,0.95
2022-10-18T07:06:18.772Z,0.80
2022-10-18T07:08:46.344Z,0.70
2022-10-18T07:11:23.896Z,0.55
2022-10-18T07:13:50.962Z,0.60
2022-10-18T07:16:19.358Z,0.60
2022-10-18T07:18:52.682Z,0.60
2022-10-18T07:21:21.872Z,0.30
2022-10-18T07:23:49.060Z,0.63
2022-10-18T07:26:35.179Z,0.70
2022-10-18T07:29:10.679Z,0.70
2022-10-18T07:31:38.753Z,0.50
2022-10-18T07:34:06.772Z,0.47
2022-10-18T07:36:33.990Z,0.38
2022-10-18T07:39:00.564Z,0.40
2022-10-18T07:41:27.403Z,0.47
2022-10-18T07:43:54.017Z,0.70
2022-10-18T07:46:22.036Z,0.40
2022-10-18T07:48:48.866Z,0.30
2022-10-18T07:51:20.380Z,0.30
2022-10-18T07:53:47.433Z,0.30
2022-10-18T07:56:16.573Z,0.60
2022-10-18T07:58:44.765Z,0.52
2022-10-18T08:01:12.784Z,0.40
2022-10-18T08:03:39.717Z,0.40
2022-10-18T08:06:09.675Z,0.38
2022-10-18T08:08:37.805Z,0.30
2022-10-18T08:11:25.443Z,0.30
2022-10-18T08:13:53.920Z,0.50
2022-10-18T08:16:23.894Z,0.30
2022-10-18T08:18:50.710Z,0.30
2022-10-18T08:21:19.467Z,0.30
2022-10-18T08:23:46.857Z,0.40
2022-10-18T08:26:16.885Z,0.43
2022-10-18T08:28:53.605Z,0.30
2022-10-18T08:31:25.730Z,0.20
2022-10-18T08:33:54.284Z,0.30
2022-10-18T08:36:22.983Z,0.30
2022-10-18T08:38:49.765Z,0.20
2022-10-18T08:41:16.343Z,0.30
2022-10-18T08:44:07.307Z,0.20
2022-10-18T08:46:37.311Z,0.30
2022-10-18T08:49:05.546Z,0.20
2022-10-18T08:51:44.793Z,0.30
2022-10-18T08:54:16.524Z,0.20
2022-10-18T08:56:49.291Z,0.30
2022-10-18T08:59:16.055Z,0.30
2022-10-18T09:01:45.482Z,0.30
2022-10-18T09:04:33.483Z,0.20
2022-10-18T09:07:26.268Z,0.30
2022-10-18T09:10:28.360Z,0.20
2022-10-18T09:13:16.480Z,0.20
2022-10-18T09:15:49.641Z,0.15
2022-10-18T09:18:23.816Z,0.57
2022-10-18T09:20:59.438Z,0.20
2022-10-18T09:23:48.391Z,0.20
2022-10-18T09:26:19.544Z,0.35
2022-10-18T09:29:01.322Z,0.40
2022-10-18T09:31:36.771Z,0.30
2022-10-18T09:34:12.253Z,0.30
2022-10-18T09:36:39.493Z,0.30
2022-10-18T09:39:12.324Z,0.10
2022-10-18T09:41:55.484Z,0.10
2022-10-18T09:44:35.241Z,0.17
2022-10-18T09:47:13.391Z,0.17
2022-10-18T09:49:46.387Z,0.30
2022-10-18T09:52:29.350Z,0.20
2022-10-18T09:55:02.481Z,0.20
2022-10-18T09:57:46.869Z,0.20
2022-10-18T10:00:43.592Z,0.20
2022-10-18T10:03:14.923Z,0.20
2022-10-18T10:05:42.753Z,0.20
2022-10-18T10:08:12.256Z,0.13
2022-10-18T10:10:45.523Z,0.20
2022-10-18T10:13:22.990Z,0.20
2022-10-18T10:15:58.745Z,0.20
2022-10-18T10:18:31.190Z,0.20
2022-10-18T10:21:01.332Z,0.20
2022-10-18T10:23:36.592Z,0.20
2022-10-18T10:26:23.528Z,0.20
2022-10-18T10:28:50.813Z,0.28
2022-10-18T10:31:31.720Z,0.20
2022-10-18T10:33:59.821Z,0.20
2022-10-18T10:36:26.695Z,0.20
2022-10-18T10:39:23.893Z,0.22
2022-10-18T10:41:56.560Z,0.20
2022-10-18T10:44:30.399Z,0.32
2022-10-18T10:46:58.140Z,0.28
2022-10-18T10:49:40.740Z,0.30
2022-10-18T10:52:28.275Z,0.20
2022-10-18T10:57:49.377Z,0.20
2022-10-18T11:00:33.860Z,0.10
2022-10-18T11:03:29.541Z,0.17
2022-10-18T11:06:02.227Z,0.30
2022-10-18T11:08:36.121Z,0.38
2022-10-18T11:11:27.956Z,0.30
2022-10-18T11:17:08.106Z,0.40
2022-10-18T11:19:46.657Z,0.20
2022-10-18T11:22:19.711Z,0.30
2022-10-18T11:24:46.773Z,0.20
2022-10-18T11:27:22.388Z,0.20
2022-10-18T11:30:35.951Z,0.20
2022-10-18T11:33:11.472Z,0.25
2022-10-18T11:35:55.133Z,0.30
2022-10-18T11:38:56.524Z,0.20
2022-10-18T11:41:54.926Z,0.30
2022-10-18T11:44:37.129Z,0.20
2022-10-18T11:47:23.622Z,0.20
2022-10-18T11:50:12.895Z,0.20
2022-10-18T11:52:56.396Z,0.20
2022-10-18T11:55:35.858Z,0.20
2022-10-18T11:58:17.265Z,0.75
2022-10-18T12:00:52.452Z,0.30
2022-10-18T12:03:21.798Z,0.22
2022-10-18T12:05:51.058Z,0.20
2022-10-18T12:08:20.731Z,0.10
2022-10-18T12:11:09.972Z,0.20
2022-10-18T12:13:43.238Z,0.20
2022-10-18T12:16:11.224Z,0.20
2022-10-18T12:18:48.657Z,0.20
2022-10-18T12:21:21.897Z,0.20
2022-10-18T12:23:54.898Z,0.20
2022-10-18T12:26:22.392Z,0.10
2022-10-18T12:29:03.474Z,0.25
2022-10-18T12:31:40.817Z,0.20
2022-10-18T12:34:21.613Z,0.30
2022-10-18T12:37:34.537Z,0.30
2022-10-18T12:40:21.156Z,0.10
2022-10-18T12:42:51.198Z,0.20
2022-10-18T12:45:26.078Z,0.20
2022-10-18T12:47:52.997Z,0.20
2022-10-18T12:50:37.388Z,0.20
2022-10-18T12:53:10.583Z,0.20
2022-10-18T12:55:39.646Z,0.10
2022-10-18T12:58:28.444Z,0.20
2022-10-18T13:00:59.492Z,0.20
2022-10-18T13:03:26.053Z,0.20
2022-10-18T13:05:54.365Z,0.52
2022-10-18T13:08:27.966Z,0.20
2022-10-18T13:11:14.525Z,0.10
2022-10-18T13:13:59.217Z,0.10
2022-10-18T13:16:25.848Z,0.20
2022-10-18T13:19:23.721Z,0.10
2022-10-18T13:22:15.046Z,0.25
2022-10-18T13:25:00.400Z,0.20
2022-10-18T13:27:52.012Z,0.20
2022-10-18T13:30:18.606Z,0.32
2022-10-18T13:33:03.178Z,0.10
2022-10-18T13:36:02.589Z,0.20
2022-10-18T13:38:34.336Z,0.22
2022-10-18T13:41:05.753Z,0.20
2022-10-18T13:43:56.269Z,0.10
2022-10-18T13:46:22.759Z,0.10
2022-10-18T13:48:59.722Z,0.20
2022-10-18T13:51:42.439Z,0.10
2022-10-18T13:54:38.518Z,0.20
2022-10-18T13:57:23.668Z,0.22
2022-10-18T14:00:17.332Z,0.20
2022-10-18T14:03:22.215Z,0.13
2022-10-18T14:06:24.780Z,0.20
2022-10-18T14:09:26.275Z,0.10
2022-10-18T14:12:11.935Z,0.20
2022-10-18T14:14:55.664Z,0.22
2022-10-18T14:17:46.703Z,0.40
2022-10-18T14:20:24.771Z,0.32
2022-10-18T14:23:08.220Z,0.20
2022-10-18T14:25:37.680Z,0.30
2022-10-18T14:28:08.939Z,0.30
2022-10-18T14:30:52.747Z,0.20
2022-10-18T14:33:27.982Z,0.22
2022-10-18T14:36:09.058Z,0.20
2022-10-18T14:38:55.256Z,0.28
2022-10-18T14:41:25.744Z,0.40
2022-10-18T14:43:54.063Z,0.30
2022-10-18T14:46:24.131Z,0.40
2022-10-18T14:49:03.684Z,0.50
2022-10-18T14:51:37.052Z,0.22
2022-10-18T14:54:04.331Z,0.50
2022-10-18T14:56:36.622Z,0.55
2022-10-18T14:59:10.713Z,0.50
2022-10-18T15:01:39.350Z,0.30
2022-10-18T15:04:10.426Z,0.50
2022-10-18T15:06:43.288Z,0.30
2022-10-18T15:09:12.956Z,0.38
2022-10-18T15:11:43.895Z,0.38
2022-10-18T15:14:16.741Z,0.40
2022-10-18T15:16:45.910Z,0.57
2022-10-18T15:19:15.165Z,0.50
2022-10-18T15:22:19.715Z,0.38
2022-10-18T15:24:44.261Z,0.40
2022-10-18T15:27:33.616Z,0.30
2022-10-18T15:30:21.795Z,0.45
2022-10-18T15:32:51.755Z,0.40
2022-10-18T15:35:26.545Z,0.50
2022-10-18T15:37:58.205Z,0.40
2022-10-18T15:40:24.719Z,0.45
2022-10-18T15:43:00.421Z,0.70
2022-10-18T15:45:28.022Z,0.50
2022-10-18T15:48:03.025Z,0.65
2022-10-18T15:50:45.236Z,0.50
2022-10-18T15:53:21.708Z,0.40
2022-10-18T15:56:03.588Z,0.50
2022-10-18T15:58:44.330Z,0.28
2022-10-18T16:01:15.239Z,0.30
2022-10-18T16:03:42.861Z,0.20
2022-10-18T16:06:15.911Z,0.22
2022-10-18T16:08:51.101Z,0.20
2022-10-18T16:11:25.923Z,0.20
2022-10-18T16:13:56.425Z,0.22
2022-10-18T16:16:29.080Z,0.30
2022-10-18T16:18:56.563Z,0.20
2022-10-18T16:21:25.865Z,0.40
2022-10-18T16:23:53.241Z,0.20
2022-10-18T16:26:21.240Z,0.28
2022-10-18T16:28:48.749Z,0.30
2022-10-18T16:31:21.357Z,0.30
2022-10-18T16:33:49.900Z,0.50
2022-10-18T16:36:18.542Z,0.40
2022-10-18T16:38:45.700Z,0.30
2022-10-18T16:41:15.964Z,0.40
2022-10-18T16:43:46.715Z,0.30
2022-10-18T16:46:20.216Z,0.30
2022-10-18T16:48:47.752Z,0.50
2022-10-18T16:51:14.716Z,0.63
2022-10-18T16:53:43.484Z,0.47
2022-10-18T16:56:17.436Z,0.40
2022-10-18T16:58:45.168Z,2.45
2022-10-18T17:01:17.818Z,5.35
2022-10-18T17:03:45.195Z,3.35
2022-10-18T17:06:33.418Z,3.08
2022-10-18T17:09:00.187Z,0.80
2022-10-18T17:11:28.447Z,0.60
2022-10-18T17:13:55.225Z,1.10
2022-10-18T17:16:31.136Z,1.10
2022-10-18T17:19:02.242Z,0.90
2022-10-18T17:21:29.795Z,0.70
2022-10-18T17:24:00.598Z,0.85
2022-10-18T17:26:29.332Z,0.57
2022-10-18T17:28:59.509Z,0.43
2022-10-18T17:31:26.468Z,0.50
2022-10-18T17:33:55.450Z,0.30
2022-10-18T17:36:22.286Z,0.40
2022-10-18T17:38:53.084Z,0.43
2022-10-18T17:41:20.600Z,0.30
2022-10-18T17:43:48.419Z,0.35
2022-10-18T17:46:15.989Z,0.50
2022-10-18T17:48:45.117Z,0.45
2022-10-18T17:51:14.633Z,0.47
2022-10-18T17:53:42.083Z,0.30
2022-10-18T17:56:10.264Z,0.73
2022-10-18T17:58:37.109Z,0.30
2022-10-18T18:01:17.505Z,0.25
2022-10-18T18:03:44.744Z,0.20
2022-10-18T18:06:21.559Z,0.30
2022-10-18T18:08:49.331Z,0.20
2022-10-18T18:11:16.644Z,0.20
2022-10-18T18:13:43.332Z,0.35
2022-10-18T18:16:14.255Z,0.30
2022-10-18T18:18:41.072Z,0.22
2022-10-18T18:21:07.836Z,0.77
2022-10-18T18:23:34.399Z,0.40
2022-10-18T18:26:01.030Z,0.30
2022-10-18T18:28:27.829Z,0.30
2022-10-18T18:30:54.432Z,0.38
2022-10-18T18:33:21.200Z,0.20
2022-10-18T18:35:57.772Z,0.32
2022-10-18T18:38:25.282Z,0.30
2022-10-18T18:41:06.627Z,0.40
2022-10-18T18:43:36.132Z,0.30
2022-10-18T18:46:02.975Z,0.40
2022-10-18T18:48:32.131Z,0.47
2022-10-18T18:50:58.888Z,0.38
2022-10-18T18:53:29.528Z,0.32
2022-10-18T18:56:02.048Z,0.30
2022-10-18T18:58:28.595Z,0.30
2022-10-18T19:00:55.218Z,0.20
2022-10-18T19:03:21.783Z,0.30
2022-10-18T19:05:48.316Z,0.30
2022-10-18T19:08:14.912Z,0.35
2022-10-18T19:10:41.467Z,0.32
2022-10-18T19:13:08.092Z,0.25
2022-10-18T19:15:34.719Z,0.20
2022-10-18T19:18:01.275Z,0.28
2022-10-18T19:20:27.927Z,0.40
2022-10-18T19:22:54.553Z,0.30
2022-10-18T19:25:23.434Z,0.30
2022-10-18T19:27:52.878Z,0.22
2022-10-18T19:30:19.863Z,0.40
2022-10-18T19:32:46.560Z,0.20
2022-10-18T19:35:13.173Z,0.30
2022-10-18T19:37:40.782Z,0.20
2022-10-18T19:40:07.892Z,0.30
2022-10-18T19:42:35.995Z,0.35
2022-10-18T19:45:03.300Z,0.47
2022-10-18T19:47:29.841Z,0.20
2022-10-18T19:49:57.017Z,0.40
2022-10-18T19:52:23.687Z,0.40
2022-10-18T19:54:50.331Z,0.30
2022-10-18T19:57:17.029Z,0.30
2022-10-18T19:59:43.592Z,0.30
2022-10-18T20:02:16.031Z,0.30
2022-10-18T20:04:42.659Z,0.32
2022-10-18T20:07:09.275Z,0.25
2022-10-18T20:09:36.456Z,0.30
2022-10-18T20:12:03.244Z,0.40
2022-10-18T20:14:29.837Z,0.40
2022-10-18T20:16:58.364Z,0.20
2022-10-18T20:19:24.924Z,0.35
2022-10-18T20:21:51.629Z,0.40
2022-10-18T20:24:18.181Z,0.20
2022-10-18T20:26:45.076Z,0.32
2022-10-18T20:29:12.677Z,0.30
2022-10-18T20:31:39.617Z,0.30
2022-10-18T20:34:09.116Z,0.22
2022-10-18T20:36:35.918Z,0.30
2022-10-18T20:39:04.548Z,0.40
2022-10-18T20:41:36.454Z,0.30
2022-10-18T20:44:05.532Z,0.40
2022-10-18T20:46:34.809Z,0.45
2022-10-18T20:49:01.971Z,0.30
2022-10-18T20:51:30.844Z,0.55
2022-10-18T20:53:59.608Z,0.30
2022-10-18T20:56:27.266Z,0.20
2022-10-18T20:58:56.351Z,0.40
2022-10-18T21:01:24.918Z,0.45
2022-10-18T21:03:54.419Z,0.50
2022-10-18T21:06:38.337Z,0.40
2022-10-18T21:09:16.876Z,0.43
2022-10-18T21:11:45.727Z,0.20
2022-10-18T21:14:14.658Z,0.30
2022-10-18T21:16:43.878Z,0.30
2022-10-18T21:19:14.557Z,0.40
2022-10-18T21:21:44.102Z,0.30
2022-10-18T21:24:12.571Z,0.32
2022-10-18T21:26:39.514Z,0.25
2022-10-18T21:29:06.494Z,0.32
2022-10-18T21:31:39.236Z,0.20
2022-10-18T21:34:13.339Z,0.30
2022-10-18T21:36:41.053Z,0.20
2022-10-18T21:39:10.787Z,0.73
2022-10-18T21:41:40.085Z,0.40
2022-10-18T21:44:10.626Z,0.50
2022-10-18T21:46:39.441Z,0.57
2022-10-18T21:49:07.268Z,0.40
2022-10-18T21:51:34.819Z,0.40
2022-10-18T21:54:02.239Z,0.30
2022-10-18T21:56:31.472Z,0.57
2022-10-18T21:58:58.660Z,0.43
2022-10-18T22:01:36.116Z,0.40
2022-10-18T22:04:05.145Z,0.30
2022-10-18T22:09:05.766Z,0.50
2022-10-18T22:11:48.431Z,0.30
2022-10-18T22:14:15.078Z,0.35
2022-10-18T22:16:41.670Z,0.38
2022-10-18T22:19:08.349Z,0.40
2022-10-18T22:21:41.235Z,0.30
2022-10-18T22:24:15.317Z,0.70
2022-10-18T22:26:43.750Z,1.20
2022-10-18T22:29:14.105Z,0.75
2022-10-18T22:31:44.194Z,0.30
2022-10-18T22:34:14.098Z,0.30
2022-10-18T22:36:41.215Z,0.45
2022-10-18T22:39:10.188Z,0.50
2022-10-18T22:41:36.932Z,0.38
2022-10-18T22:44:04.180Z,0.40
2022-10-18T22:46:33.982Z,0.35
2022-10-18T22:49:00.639Z,0.50
2022-10-18T22:51:29.398Z,0.30
2022-10-18T22:53:57.256Z,0.40
2022-10-18T22:56:24.335Z,0.40
2022-10-18T22:58:51.028Z,0.40
2022-10-18T23:01:20.403Z,0.30
2022-10-18T23:03:47.277Z,0.40
2022-10-18T23:06:25.669Z,0.50
2022-10-18T23:08:54.202Z,0.32
2022-10-18T23:11:21.207Z,0.20
2022-10-18T23:13:49.795Z,0.57
2022-10-18T23:16:17.070Z,0.40
2022-10-18T23:18:46.098Z,0.50
2022-10-18T23:21:13.764Z,0.35
2022-10-18T23:23:42.510Z,0.47
2022-10-18T23:26:17.774Z,0.30
2022-10-18T23:28:46.476Z,0.43
2022-10-18T23:31:19.742Z,0.30
2022-10-18T23:33:49.088Z,0.30
2022-10-18T23:36:16.696Z,0.43
2022-10-18T23:38:43.572Z,1.45
2022-10-18T23:41:12.818Z,0.40
2022-10-18T23:43:40.184Z,0.30
2022-10-18T23:46:06.955Z,0.30
2022-10-18T23:48:34.337Z,0.30
2022-10-18T23:51:01.781Z,0.38
2022-10-18T23:53:30.210Z,0.30
2022-10-18T23:56:03.159Z,0.40
2022-10-18T23:58:31.693Z,0.30
